Time;durP1;ratioP1;P1;durP2;ratioP2;P2;SDS_P1;SDS_P2;PMS_P1;PMS_P2;Temp;Humidity;BMP_temperature;BMP_pressure;BME280_temperature;BME280_humidity;BME280_pressure;Samples;Min_cycle;Max_cycle;Signal;HPM_P1;HPM_P2
2023/02/10 00:00:43;;;;;;;;;;;-3.90;1.00;;;;;;5086114;28;21118;-78
2023/02/10 00:03:10;;;;;;;;;;;-3.90;1.00;;;;;;5085308;28;19916;-78
2023/02/10 00:05:36;;;;;;;;;;;-3.90;1.00;;;;;;5093081;28;19923;-78
2023/02/10 00:08:02;;;;;;;;;;;-3.90;1.00;;;;;;5081819;28;19916;-78
2023/02/10 00:10:28;;;;;;;;;;;-4.00;1.00;;;;;;5086149;28;20236;-78
2023/02/10 00:12:53;;;;;;;;;;;-4.00;1.00;;;;;;5083781;28;19912;-78
2023/02/10 00:15:19;;;;;;;;;;;-4.00;1.00;;;;;;5088778;28;19919;-78
2023/02/10 00:17:45;;;;;;;;;;;-4.00;1.00;;;;;;5090322;28;19912;-78
2023/02/10 00:20:11;;;;;;;;;;;-4.00;1.00;;;;;;5090658;28;19908;-78
2023/02/10 00:22:37;;;;;;;;;;;-4.00;1.00;;;;;;5089670;28;19920;-78
2023/02/10 00:25:03;;;;;;;;;;;-3.90;1.00;;;;;;5099420;28;19912;-78
2023/02/10 00:27:29;;;;;;;;;;;-4.00;1.00;;;;;;5093232;28;19916;-78
2023/02/10 00:29:55;;;;;;;;;;;-4.10;1.00;;;;;;5092508;28;20109;-78
2023/02/10 00:32:21;;;;;;;;;;;-4.10;1.00;;;;;;5090921;28;19920;-78
2023/02/10 00:34:47;;;;;;;;;;;-4.20;1.00;;;;;;5090214;28;19913;-78
2023/02/10 00:37:13;;;;;;;;;;;-4.10;1.00;;;;;;5104435;28;19924;-78
2023/02/10 00:39:39;;;;;;;;;;;-4.10;1.00;;;;;;5100040;28;19923;-78
2023/02/10 00:42:05;;;;;;;;;;;-4.10;1.00;;;;;;5116598;28;20106;-78
2023/02/10 00:44:31;;;;;;;;;;;-4.10;1.00;;;;;;5103262;28;19913;-78
2023/02/10 00:46:57;;;;;;;;;;;-4.10;1.00;;;;;;5104279;28;19924;-79
2023/02/10 00:49:23;;;;;;;;;;;-4.20;1.00;;;;;;5106077;28;19920;-79
2023/02/10 00:51:49;;;;;;;;;;;-4.10;1.00;;;;;;5114565;28;19907;-79
2023/02/10 00:54:15;;;;;;;;;;;-4.10;1.00;;;;;;5103806;28;19911;-78
2023/02/10 00:56:41;;;;;;;;;;;-4.10;1.00;;;;;;5108635;28;19920;-78
2023/02/10 00:59:08;;;;;;;;;;;-4.10;1.00;;;;;;5111540;28;19908;-79
2023/02/10 01:01:35;;;;;;;;;;;-4.00;1.00;;;;;;5088896;28;20304;-79
2023/02/10 01:04:01;;;;;;;;;;;-4.00;1.00;;;;;;5109012;28;20399;-77
2023/02/10 01:06:27;;;;;;;;;;;-4.00;1.00;;;;;;5097233;28;19916;-79
2023/02/10 01:08:53;;;;;;;;;;;-4.10;1.00;;;;;;5088437;28;19912;-78
2023/02/10 01:11:20;;;;;;;;;;;-4.10;1.00;;;;;;5093325;28;19913;-78
2023/02/10 01:13:46;;;;;;;;;;;-4.10;1.00;;;;;;5098659;28;19916;-78
2023/02/10 01:16:13;;;;;;;;;;;-4.00;1.00;;;;;;5099308;28;20023;-78
2023/02/10 01:18:40;;;;;;;;;;;-4.10;1.00;;;;;;5107381;28;19935;-79
2023/02/10 01:21:11;;;;;;;;;;;-4.20;1.00;;;;;;5103529;28;19920;-78
2023/02/10 01:23:37;;;;;;;;;;;-4.30;1.00;;;;;;5098013;28;19951;-78
2023/02/10 01:26:03;;;;;;;;;;;-4.30;1.00;;;;;;5084943;28;19923;-79
2023/02/10 01:28:29;;;;;;;;;;;-4.40;1.00;;;;;;5089219;28;19937;-78
2023/02/10 01:30:55;;;;;;;;;;;-4.40;1.00;;;;;;5090564;28;20007;-78
2023/02/10 01:33:21;;;;;;;;;;;-4.40;1.00;;;;;;5082236;28;19913;-78
2023/02/10 01:35:47;;;;;;;;;;;-4.40;1.00;;;;;;5095116;28;20361;-78
2023/02/10 01:38:13;;;;;;;;;;;-4.40;1.00;;;;;;5076945;28;19919;-78
2023/02/10 01:40:39;;;;;;;;;;;-4.50;1.00;;;;;;5083634;28;20007;-79
2023/02/10 01:43:15;;;;;;;;;;;-4.50;1.00;;;;;;5089386;28;19912;-79
2023/02/10 01:45:41;;;;;;;;;;;-4.50;1.00;;;;;;5081537;28;19916;-79
2023/02/10 01:48:08;;;;;;;;;;;-4.50;1.00;;;;;;5089937;28;19953;-78
2023/02/10 01:50:37;;;;;;;;;;;-4.50;1.00;;;;;;5093735;28;19924;-78
2023/02/10 01:53:04;;;;;;;;;;;-4.50;1.00;;;;;;5081848;28;19915;-79
2023/02/10 01:55:34;;;;;;;;;;;-4.60;1.00;;;;;;5082329;28;19919;-78
2023/02/10 01:58:02;;;;;;;;;;;-4.60;1.00;;;;;;5093303;28;19912;-78
2023/02/10 02:00:29;;;;;;;;;;;-4.50;1.00;;;;;;5088245;28;19916;-78
2023/02/10 02:02:57;;;;;;;;;;;-4.60;1.00;;;;;;5095531;28;19928;-78
2023/02/10 02:05:29;;;;;;;;;;;-4.60;1.00;;;;;;5090458;28;19917;-78
2023/02/10 02:07:58;;;;;;;;;;;-4.60;1.00;;;;;;5073260;28;19923;-79
2023/02/10 02:10:29;;;;;;;;;;;-4.60;1.00;;;;;;5074646;28;19923;-78
2023/02/10 02:13:03;;;;;;;;;;;-4.60;1.00;;;;;;5084029;28;19924;-79
2023/02/10 02:15:39;;;;;;;;;;;-4.60;1.00;;;;;;5091706;28;19913;-78
2023/02/10 02:18:10;;;;;;;;;;;-4.60;1.00;;;;;;5081635;28;20277;-78
2023/02/10 02:21:05;;;;;;;;;;;-4.60;1.00;;;;;;5078611;28;19919;-78
2023/02/10 02:23:47;;;;;;;;;;;-4.60;1.00;;;;;;5074523;28;19912;-78
2023/02/10 02:26:23;;;;;;;;;;;-4.60;1.00;;;;;;5088886;28;19923;-78
2023/02/10 02:32:21;;;;;;;;;;;-4.80;1.00;;;;;;5082617;28;19928;-78
2023/02/10 02:34:47;;;;;;;;;;;-4.80;1.00;;;;;;5083185;28;19912;-78
2023/02/10 02:37:18;;;;;;;;;;;-4.80;1.00;;;;;;5083387;28;19950;-78
2023/02/10 02:39:44;;;;;;;;;;;-4.80;1.00;;;;;;5081654;28;19915;-77
2023/02/10 02:42:18;;;;;;;;;;;-4.80;1.00;;;;;;5089643;28;19912;-76
2023/02/10 02:44:45;;;;;;;;;;;-4.90;1.00;;;;;;5097646;28;19923;-79
2023/02/10 02:47:17;;;;;;;;;;;-4.90;1.00;;;;;;5081064;28;20396;-78
2023/02/10 02:50:02;;;;;;;;;;;-4.90;1.00;;;;;;5086348;28;19921;-79
2023/02/10 02:52:43;;;;;;;;;;;-5.00;1.00;;;;;;5083892;28;19935;-79
2023/02/10 02:55:15;;;;;;;;;;;-4.90;1.00;;;;;;5080001;28;19913;-79
2023/02/10 02:57:52;;;;;;;;;;;-5.00;1.00;;;;;;5091715;28;19919;-79
2023/02/10 03:00:20;;;;;;;;;;;-5.00;1.00;;;;;;5094221;28;19913;-79
2023/02/10 03:02:47;;;;;;;;;;;-5.00;1.00;;;;;;5077904;28;20377;-79
2023/02/10 03:05:18;;;;;;;;;;;-5.00;1.00;;;;;;5079034;28;20369;-79
2023/02/10 03:07:44;;;;;;;;;;;-5.10;1.00;;;;;;5098290;28;19924;-79
2023/02/10 03:10:10;;;;;;;;;;;-5.10;1.00;;;;;;5082555;28;19986;-79
2023/02/10 03:12:36;;;;;;;;;;;-5.10;1.00;;;;;;5083908;28;19917;-79
2023/02/10 03:15:02;;;;;;;;;;;-5.10;1.00;;;;;;5079265;28;19954;-79
2023/02/10 03:17:28;;;;;;;;;;;-5.10;1.00;;;;;;5081803;28;19919;-79
2023/02/10 03:19:54;;;;;;;;;;;-5.00;1.00;;;;;;5090460;28;19916;-79
2023/02/10 03:22:20;;;;;;;;;;;-5.10;1.00;;;;;;5079948;28;19913;-79
2023/02/10 03:24:46;;;;;;;;;;;-5.10;1.00;;;;;;5078762;28;19912;-79
2023/02/10 03:27:12;;;;;;;;;;;-5.20;1.00;;;;;;5084070;28;20358;-79
2023/02/10 03:29:38;;;;;;;;;;;-5.20;1.00;;;;;;5091333;28;19916;-79
2023/02/10 03:32:05;;;;;;;;;;;-5.20;1.00;;;;;;5076831;28;19928;-79
2023/02/10 03:34:31;;;;;;;;;;;-5.10;1.00;;;;;;5083545;28;19909;-79
2023/02/10 03:36:57;;;;;;;;;;;-5.10;1.00;;;;;;5078072;28;19956;-79
2023/02/10 03:39:23;;;;;;;;;;;-5.20;1.00;;;;;;5088341;28;19996;-79
2023/02/10 03:41:49;;;;;;;;;;;-5.20;1.00;;;;;;5097671;27;20425;-79
2023/02/10 03:44:15;;;;;;;;;;;-5.30;1.00;;;;;;5112189;27;19916;-77
2023/02/10 03:46:41;;;;;;;;;;;-5.30;1.00;;;;;;5102013;27;19968;-77
2023/02/10 03:49:07;;;;;;;;;;;-5.30;1.00;;;;;;5085553;28;19912;-77
2023/02/10 03:51:33;;;;;;;;;;;-5.20;1.00;;;;;;5085704;28;19955;-80
2023/02/10 03:53:59;;;;;;;;;;;-5.20;1.00;;;;;;5088141;28;20460;-77
2023/02/10 03:56:25;;;;;;;;;;;-5.30;1.00;;;;;;5094575;28;19947;-77
2023/02/10 03:58:51;;;;;;;;;;;-5.30;1.00;;;;;;5096626;27;19966;-77
2023/02/10 04:01:17;;;;;;;;;;;-5.30;1.00;;;;;;5079131;28;19928;-77
2023/02/10 04:03:44;;;;;;;;;;;-5.30;1.00;;;;;;5086034;28;19917;-78
2023/02/10 04:06:10;;;;;;;;;;;-5.40;1.00;;;;;;5081765;28;19967;-77
2023/02/10 04:08:36;;;;;;;;;;;-5.40;1.00;;;;;;5092187;28;19916;-78
2023/02/10 04:11:03;;;;;;;;;;;-5.40;1.00;;;;;;5081698;28;19920;-77
2023/02/10 04:13:28;;;;;;;;;;;-5.40;1.00;;;;;;5091447;28;19924;-77
2023/02/10 04:16:02;;;;;;;;;;;-5.50;1.00;;;;;;5085456;28;19962;-77
2023/02/10 04:18:28;;;;;;;;;;;-5.50;1.00;;;;;;5088226;28;19912;-79
2023/02/10 04:20:54;;;;;;;;;;;-5.50;1.00;;;;;;5089847;28;20423;-79
2023/02/10 04:23:19;;;;;;;;;;;-5.60;1.00;;;;;;5081909;28;19916;-79
2023/02/10 04:25:45;;;;;;;;;;;-5.60;1.00;;;;;;5088903;28;19912;-79
2023/02/10 04:28:11;;;;;;;;;;;-5.60;1.00;;;;;;5084091;28;19955;-79
2023/02/10 04:30:37;;;;;;;;;;;-5.60;1.00;;;;;;5089153;28;19951;-78
2023/02/10 04:33:03;;;;;;;;;;;-5.60;1.00;;;;;;5088808;28;20296;-79
2023/02/10 04:35:29;;;;;;;;;;;-5.60;1.00;;;;;;5086930;28;19908;-80
2023/02/10 04:37:56;;;;;;;;;;;-5.60;1.00;;;;;;5123248;27;19922;-79
2023/02/10 04:40:22;;;;;;;;;;;-5.60;1.00;;;;;;5095193;28;19912;-79
2023/02/10 04:42:48;;;;;;;;;;;-5.60;1.00;;;;;;5095682;28;19912;-79
2023/02/10 04:45:14;;;;;;;;;;;-5.60;1.00;;;;;;5088201;28;19912;-79
2023/02/10 04:47:40;;;;;;;;;;;-5.50;1.00;;;;;;5084438;28;19912;-80
2023/02/10 04:50:06;;;;;;;;;;;-5.50;1.00;;;;;;5091110;28;19965;-79
2023/02/10 04:52:32;;;;;;;;;;;-5.50;1.00;;;;;;5091148;28;19923;-79
2023/02/10 04:54:58;;;;;;;;;;;-5.50;1.00;;;;;;5093031;28;19912;-80
2023/02/10 04:57:24;;;;;;;;;;;-5.50;1.00;;;;;;5082835;28;19913;-80
2023/02/10 04:59:50;;;;;;;;;;;-5.50;1.00;;;;;;5085026;28;19913;-80
2023/02/10 05:02:16;;;;;;;;;;;-5.50;1.00;;;;;;5083567;28;20388;-80
2023/02/10 05:04:42;;;;;;;;;;;-5.50;1.00;;;;;;5088214;28;19912;-80
2023/02/10 05:07:08;;;;;;;;;;;-5.50;1.00;;;;;;5082643;28;20003;-79
2023/02/10 05:09:34;;;;;;;;;;;-5.50;1.00;;;;;;5092532;28;19912;-79
2023/02/10 05:12:00;;;;;;;;;;;-5.40;1.00;;;;;;5086745;28;20353;-79
2023/02/10 05:14:26;;;;;;;;;;;-5.30;1.00;;;;;;5087508;28;20433;-79
2023/02/10 05:16:52;;;;;;;;;;;-5.20;1.90;;;;;;5080289;28;20392;-78
2023/02/10 05:19:18;;;;;;;;;;;-5.20;1.60;;;;;;5080677;28;20011;-79
2023/02/10 05:21:44;;;;;;;;;;;-5.20;1.60;;;;;;5096951;28;19920;-78
2023/02/10 05:24:10;;;;;;;;;;;-5.10;2.00;;;;;;5087085;28;19974;-79
2023/02/10 05:26:36;;;;;;;;;;;-5.00;1.90;;;;;;5093674;28;19923;-78
2023/02/10 05:29:03;;;;;;;;;;;-5.00;1.30;;;;;;5092177;28;20361;-79
2023/02/10 05:31:29;;;;;;;;;;;-4.80;1.30;;;;;;5083103;28;19923;-78
2023/02/10 05:33:55;;;;;;;;;;;-4.80;1.00;;;;;;5081126;28;19924;-78
2023/02/10 05:36:21;;;;;;;;;;;-4.80;1.00;;;;;;5090427;28;20366;-78
2023/02/10 05:41:31;;;;;;;;;;;-4.70;1.00;;;;;;5098685;28;19919;-78
2023/02/10 05:43:58;;;;;;;;;;;-4.70;1.00;;;;;;5085136;28;19915;-78
2023/02/10 05:46:24;;;;;;;;;;;-4.70;1.00;;;;;;5111482;27;19923;-78
2023/02/10 05:48:50;;;;;;;;;;;-4.60;1.00;;;;;;5083545;28;20051;-78
2023/02/10 05:51:16;;;;;;;;;;;-4.60;1.00;;;;;;5083091;28;19927;-78
2023/02/10 05:53:41;;;;;;;;;;;-4.60;1.00;;;;;;5081452;28;19962;-77
2023/02/10 05:56:08;;;;;;;;;;;-4.60;1.00;;;;;;5089271;28;19912;-78
2023/02/10 05:58:34;;;;;;;;;;;-4.60;1.00;;;;;;5084236;28;20421;-78
2023/02/10 06:01:00;;;;;;;;;;;-4.60;1.00;;;;;;5080841;28;19925;-77
2023/02/10 06:03:26;;;;;;;;;;;-4.60;1.00;;;;;;5076783;28;19920;-78
2023/02/10 06:05:52;;;;;;;;;;;-4.60;1.00;;;;;;5080267;28;19913;-78
2023/02/10 06:08:18;;;;;;;;;;;-4.60;1.00;;;;;;5078726;28;19920;-78
2023/02/10 06:10:44;;;;;;;;;;;-4.50;1.00;;;;;;5082909;28;19921;-77
2023/02/10 06:13:10;;;;;;;;;;;-4.40;1.00;;;;;;5094371;28;19915;-75
2023/02/10 06:15:36;;;;;;;;;;;-4.30;1.00;;;;;;5083200;28;19919;-75
2023/02/10 06:18:02;;;;;;;;;;;-4.10;1.00;;;;;;5085068;28;19908;-75
2023/02/10 06:20:28;;;;;;;;;;;-4.10;1.00;;;;;;5114214;27;19919;-74
2023/02/10 06:22:54;;;;;;;;;;;-4.10;1.00;;;;;;5078589;28;20292;-75
2023/02/10 06:25:20;;;;;;;;;;;-3.90;1.00;;;;;;5113548;27;19908;-74
2023/02/10 06:27:46;;;;;;;;;;;-3.90;1.00;;;;;;5080395;28;19951;-74
2023/02/10 06:30:12;;;;;;;;;;;-3.80;1.00;;;;;;5079630;28;19916;-74
2023/02/10 06:32:38;;;;;;;;;;;-3.80;1.00;;;;;;5080162;28;19916;-74
2023/02/10 06:35:04;;;;;;;;;;;-3.70;1.00;;;;;;5089629;28;19982;-74
2023/02/10 06:37:30;;;;;;;;;;;-3.70;1.00;;;;;;5080237;28;19919;-74
2023/02/10 06:39:56;;;;;;;;;;;-3.60;1.00;;;;;;5095386;28;19915;-74
2023/02/10 06:42:23;;;;;;;;;;;-3.50;1.00;;;;;;5079656;28;20285;-74
2023/02/10 06:44:49;;;;;;;;;;;-3.40;1.00;;;;;;5073983;28;19943;-74
2023/02/10 06:47:15;;;;;;;;;;;-3.40;1.00;;;;;;5081692;28;19924;-75
2023/02/10 06:49:41;;;;;;;;;;;-3.40;1.00;;;;;;5080347;28;19916;-74
2023/02/10 06:52:07;;;;;;;;;;;-3.30;1.00;;;;;;5080267;28;19912;-75
2023/02/10 06:54:33;;;;;;;;;;;-3.20;1.00;;;;;;5085608;28;19919;-74
2023/02/10 06:56:59;;;;;;;;;;;-3.20;1.00;;;;;;5085237;28;20352;-75
2023/02/10 06:59:25;;;;;;;;;;;-3.10;1.00;;;;;;5093727;27;19927;-74
2023/02/10 07:01:53;;;;;;;;;;;-3.00;1.00;;;;;;5067403;28;19931;-75
2023/02/10 07:04:19;;;;;;;;;;;-2.90;1.00;;;;;;5086647;28;19931;-74
2023/02/10 07:06:45;;;;;;;;;;;-2.70;1.00;;;;;;5078983;28;19920;-74
2023/02/10 07:09:11;;;;;;;;;;;-2.60;1.00;;;;;;5072989;28;19923;-74
2023/02/10 07:11:37;;;;;;;;;;;-2.50;1.00;;;;;;5081437;28;19908;-74
2023/02/10 07:14:03;;;;;;;;;;;-2.50;1.00;;;;;;5081142;28;19912;-74
2023/02/10 07:16:30;;;;;;;;;;;-2.40;1.00;;;;;;5088296;28;20288;-74
2023/02/10 07:18:57;;;;;;;;;;;-2.40;1.00;;;;;;5088700;28;20261;-74
2023/02/10 07:21:23;;;;;;;;;;;-2.40;1.00;;;;;;5092680;28;20018;-74
2023/02/10 07:23:48;;;;;;;;;;;-2.20;1.00;;;;;;5079315;28;19917;-74
2023/02/10 07:26:17;;;;;;;;;;;-2.20;1.00;;;;;;5082542;28;19909;-74
2023/02/10 07:28:43;;;;;;;;;;;-2.20;1.00;;;;;;5083358;28;19935;-74
2023/02/10 07:31:10;;;;;;;;;;;-2.10;1.00;;;;;;5079231;28;19923;-74
2023/02/10 07:33:36;;;;;;;;;;;-2.10;1.00;;;;;;5093915;28;19912;-74
2023/02/10 07:36:04;;;;;;;;;;;-2.00;1.00;;;;;;5077531;28;19919;-77
2023/02/10 07:38:30;;;;;;;;;;;-1.90;1.00;;;;;;5079900;28;19909;-75
2023/02/10 07:40:57;;;;;;;;;;;-1.70;1.00;;;;;;5086007;28;19912;-74
2023/02/10 07:43:23;;;;;;;;;;;-1.50;1.00;;;;;;5090397;28;19922;-75
2023/02/10 07:46:02;;;;;;;;;;;-1.40;1.00;;;;;;5085250;28;19919;-75
2023/02/10 07:48:28;;;;;;;;;;;-1.20;1.00;;;;;;5082138;28;19924;-75
2023/02/10 07:50:54;;;;;;;;;;;-0.90;1.00;;;;;;5080411;28;20277;-75
2023/02/10 07:53:21;;;;;;;;;;;-0.80;1.00;;;;;;5086161;28;19913;-76
2023/02/10 07:55:47;;;;;;;;;;;-0.60;1.00;;;;;;5077459;28;20365;-75
2023/02/10 07:58:13;;;;;;;;;;;-0.50;1.00;;;;;;5078308;28;20222;-76
2023/02/10 08:00:39;;;;;;;;;;;-0.50;1.00;;;;;;5077038;28;19912;-76
2023/02/10 08:03:05;;;;;;;;;;;-0.30;1.00;;;;;;5115297;27;19924;-77
2023/02/10 08:05:32;;;;;;;;;;;-0.10;1.00;;;;;;5086072;28;19935;-75
2023/02/10 08:07:58;;;;;;;;;;;0.20;1.00;;;;;;5086449;28;19935;-77
2023/02/10 08:10:24;;;;;;;;;;;0.30;1.00;;;;;;5088531;28;19916;-76
2023/02/10 08:12:50;;;;;;;;;;;0.30;1.00;;;;;;5085965;28;19911;-75
2023/02/10 08:15:17;;;;;;;;;;;0.30;1.00;;;;;;5083856;28;20365;-76
2023/02/10 08:17:43;;;;;;;;;;;0.50;1.00;;;;;;5087530;28;19916;-76
2023/02/10 08:20:10;;;;;;;;;;;0.50;1.00;;;;;;5080829;28;19917;-76
2023/02/10 08:22:37;;;;;;;;;;;0.30;1.00;;;;;;5087534;28;19912;-76
2023/02/10 08:25:04;;;;;;;;;;;0.10;1.00;;;;;;5077107;28;19908;-76
2023/02/10 08:27:30;;;;;;;;;;;0.00;1.00;;;;;;5091085;28;20365;-76
2023/02/10 08:29:56;;;;;;;;;;;-0.10;1.00;;;;;;5092445;28;19924;-76
2023/02/10 08:32:22;;;;;;;;;;;-0.10;1.00;;;;;;5083943;28;19938;-76
2023/02/10 08:34:49;;;;;;;;;;;-0.20;1.00;;;;;;5096177;27;19920;-76
2023/02/10 08:37:16;;;;;;;;;;;-0.20;1.00;;;;;;5091820;28;19926;-75
2023/02/10 08:39:43;;;;;;;;;;;-0.20;1.00;;;;;;5090527;28;20388;-76
2023/02/10 08:42:09;;;;;;;;;;;-0.20;1.00;;;;;;5093753;28;19920;-75
2023/02/10 08:44:35;;;;;;;;;;;-0.20;1.00;;;;;;5084748;28;19917;-74
2023/02/10 08:47:02;;;;;;;;;;;-0.10;1.00;;;;;;5090545;28;19913;-75
2023/02/10 08:49:28;;;;;;;;;;;0.00;1.00;;;;;;5086494;28;19916;-75
2023/02/10 08:51:55;;;;;;;;;;;0.10;1.00;;;;;;5084284;28;19916;-75
2023/02/10 08:54:21;;;;;;;;;;;0.10;1.00;;;;;;5082367;28;19913;-75
2023/02/10 08:56:47;;;;;;;;;;;0.10;1.00;;;;;;5086104;28;19927;-75
2023/02/10 08:59:14;;;;;;;;;;;0.20;1.00;;;;;;5083818;28;20273;-75
2023/02/10 09:01:40;;;;;;;;;;;0.30;1.00;;;;;;5089118;28;19932;-75
2023/02/10 09:04:06;;;;;;;;;;;0.40;1.00;;;;;;5084059;28;19916;-75
2023/02/10 09:06:38;;;;;;;;;;;0.50;1.00;;;;;;5087585;28;19919;-74
2023/02/10 09:09:05;;;;;;;;;;;0.70;1.00;;;;;;5123421;27;19916;-76
2023/02/10 09:11:32;;;;;;;;;;;0.70;99.90;;;;;;5080245;28;19913;-76
2023/02/10 09:13:58;;;;;;;;;;;0.70;99.90;;;;;;5074885;28;20305;-76
2023/02/10 09:16:24;;;;;;;;;;;0.60;99.90;;;;;;5081990;28;19990;-76
2023/02/10 09:18:50;;;;;;;;;;;0.60;99.90;;;;;;5083159;28;19935;-75
2023/02/10 09:21:16;;;;;;;;;;;0.70;99.90;;;;;;5083759;28;19916;-79
2023/02/10 09:23:43;;;;;;;;;;;0.80;99.90;;;;;;5084926;28;19916;-80
2023/02/10 09:26:09;;;;;;;;;;;0.90;99.90;;;;;;5098196;27;19912;-79
2023/02/10 09:28:35;;;;;;;;;;;0.80;99.90;;;;;;5102628;27;19920;-80
2023/02/10 09:31:03;;;;;;;;;;;0.80;99.90;;;;;;5083739;28;20289;-79
2023/02/10 09:33:29;;;;;;;;;;;0.90;99.90;;;;;;5114020;27;19913;-80
2023/02/10 09:35:55;;;;;;;;;;;1.00;99.90;;;;;;5091507;28;19930;-80
2023/02/10 09:38:21;;;;;;;;;;;1.10;99.90;;;;;;5094719;28;20353;-80
2023/02/10 09:41:17;;;;;;;;;;;1.10;99.90;;;;;;5091857;28;19912;-79
2023/02/10 09:43:52;;;;;;;;;;;1.10;99.90;;;;;;5082239;28;19916;-79
2023/02/10 09:46:27;;;;;;;;;;;1.30;99.90;;;;;;5118487;27;20090;-80
2023/02/10 09:49:00;;;;;;;;;;;1.20;99.90;;;;;;5120817;27;19927;-80
2023/02/10 09:51:40;;;;;;;;;;;1.10;99.90;;;;;;5090329;28;20362;-80
2023/02/10 09:54:10;;;;;;;;;;;1.00;99.90;;;;;;5085851;28;19927;-79
2023/02/10 09:56:37;;;;;;;;;;;1.10;99.90;;;;;;5079060;28;20357;-79
2023/02/10 09:59:04;;;;;;;;;;;1.00;99.90;;;;;;5090444;28;19912;-80
2023/02/10 10:01:39;;;;;;;;;;;1.10;99.90;;;;;;5094690;28;19931;-80
2023/02/10 10:04:18;;;;;;;;;;;1.10;99.90;;;;;;5091887;28;19923;-80
2023/02/10 10:06:47;;;;;;;;;;;1.20;99.90;;;;;;5094473;28;19912;-82
2023/02/10 10:09:35;;;;;;;;;;;1.10;99.90;;;;;;5090833;28;19915;-80
2023/02/10 10:12:01;;;;;;;;;;;1.10;99.90;;;;;;5088027;28;19913;-78
2023/02/10 10:14:38;;;;;;;;;;;1.20;99.90;;;;;;5073703;28;19909;-79
2023/02/10 10:17:04;;;;;;;;;;;1.30;99.90;;;;;;5075873;28;19913;-80
2023/02/10 10:19:36;;;;;;;;;;;1.40;99.90;;;;;;5090863;28;20246;-79
2023/02/10 10:22:22;;;;;;;;;;;1.50;99.90;;;;;;5082724;28;19912;-80
2023/02/10 10:25:15;;;;;;;;;;;1.60;99.90;;;;;;5086301;28;20308;-79
2023/02/10 10:27:53;;;;;;;;;;;1.70;99.90;;;;;;5084675;28;20906;-80
2023/02/10 10:30:25;;;;;;;;;;;1.70;99.90;;;;;;5092258;28;20369;-80
2023/02/10 10:32:53;;;;;;;;;;;1.80;99.90;;;;;;5089609;28;19923;-80
2023/02/10 10:35:46;;;;;;;;;;;1.90;99.90;;;;;;5091167;28;19912;-80
2023/02/10 10:38:13;;;;;;;;;;;2.10;99.90;;;;;;5097769;27;19917;-76
2023/02/10 10:40:41;;;;;;;;;;;2.30;99.90;;;;;;5083190;28;19912;-77
2023/02/10 10:43:13;;;;;;;;;;;2.20;99.90;;;;;;5077939;28;19919;-79
2023/02/10 10:45:42;;;;;;;;;;;2.10;99.90;;;;;;5085110;28;19913;-76
2023/02/10 10:48:14;;;;;;;;;;;2.30;99.90;;;;;;5079389;28;20361;-77
2023/02/10 10:50:40;;;;;;;;;;;2.40;99.90;;;;;;5082216;28;19923;-76
2023/02/10 10:53:18;;;;;;;;;;;2.40;99.90;;;;;;5084273;28;20365;-76
2023/02/10 10:55:49;;;;;;;;;;;2.60;99.90;;;;;;5078071;28;20270;-76
2023/02/10 10:58:26;;;;;;;;;;;2.80;99.90;;;;;;5081224;28;20215;-76
2023/02/10 11:00:54;;;;;;;;;;;2.80;99.90;;;;;;5095000;28;19924;-76
2023/02/10 11:03:20;;;;;;;;;;;2.90;99.90;;;;;;5075092;28;19913;-76
2023/02/10 11:06:05;;;;;;;;;;;3.00;99.90;;;;;;5077514;28;19921;-76
2023/02/10 11:08:34;;;;;;;;;;;3.10;99.90;;;;;;5079695;28;20362;-75
2023/02/10 11:11:02;;;;;;;;;;;3.20;99.90;;;;;;5080935;28;19913;-76
2023/02/10 11:13:29;;;;;;;;;;;3.30;99.90;;;;;;5079894;28;20543;-75
2023/02/10 11:16:01;;;;;;;;;;;3.30;99.90;;;;;;5078409;28;20253;-76
2023/02/10 11:18:27;;;;;;;;;;;3.40;99.90;;;;;;5078233;28;19912;-76
2023/02/10 11:20:59;;;;;;;;;;;3.30;99.90;;;;;;5078224;28;19935;-76
2023/02/10 11:23:27;;;;;;;;;;;3.30;99.90;;;;;;5084659;28;19920;-77
2023/02/10 11:25:56;;;;;;;;;;;3.30;99.90;;;;;;5098017;28;19912;-76
2023/02/10 11:28:24;;;;;;;;;;;3.30;99.90;;;;;;5076763;28;19917;-74
2023/02/10 11:30:55;;;;;;;;;;;3.20;99.90;;;;;;5090250;28;19928;-76
2023/02/10 11:33:22;;;;;;;;;;;3.20;99.90;;;;;;5077827;28;19916;-76
2023/02/10 11:35:52;;;;;;;;;;;3.30;99.90;;;;;;5082327;28;20353;-75
2023/02/10 11:38:23;;;;;;;;;;;3.40;99.90;;;;;;5077817;28;19938;-77
2023/02/10 11:40:51;;;;;;;;;;;3.40;99.90;;;;;;5082887;28;19915;-75
2023/02/10 11:43:17;;;;;;;;;;;3.50;99.90;;;;;;5083219;28;19919;-75
2023/02/10 11:45:55;;;;;;;;;;;3.70;99.90;;;;;;5079903;28;19916;-75
2023/02/10 11:48:22;;;;;;;;;;;3.80;99.90;;;;;;5080624;28;20396;-75
2023/02/10 11:50:59;;;;;;;;;;;3.90;99.90;;;;;;5086341;28;19916;-76
2023/02/10 11:53:27;;;;;;;;;;;4.00;99.90;;;;;;5078977;28;19912;-76
2023/02/10 11:55:59;;;;;;;;;;;4.20;99.90;;;;;;5082243;28;20381;-76
2023/02/10 11:58:59;;;;;;;;;;;4.30;99.90;;;;;;5123265;27;19926;-76
2023/02/10 12:01:25;;;;;;;;;;;4.50;99.90;;;;;;5081966;28;19928;-76
2023/02/10 12:04:00;;;;;;;;;;;4.60;99.90;;;;;;5083718;28;19919;-76
2023/02/10 12:06:36;;;;;;;;;;;4.70;99.90;;;;;;5080743;28;19916;-76
2023/02/10 12:09:14;;;;;;;;;;;4.70;99.90;;;;;;5089035;28;19924;-77
2023/02/10 12:11:40;;;;;;;;;;;4.60;99.90;;;;;;5087546;28;20321;-77
2023/02/10 12:14:06;;;;;;;;;;;4.80;99.90;;;;;;5093373;28;19912;-77
2023/02/10 12:16:35;;;;;;;;;;;5.00;99.90;;;;;;5086457;28;19916;-76
2023/02/10 12:19:14;;;;;;;;;;;5.20;99.90;;;;;;5114453;27;19908;-76
2023/02/10 12:21:46;;;;;;;;;;;5.20;99.90;;;;;;5095461;28;19919;-76
2023/02/10 12:24:12;;;;;;;;;;;5.20;99.90;;;;;;5088100;28;19912;-77
2023/02/10 12:26:45;;;;;;;;;;;5.20;99.90;;;;;;5086914;28;20421;-76
2023/02/10 12:29:30;;;;;;;;;;;5.40;99.90;;;;;;5088401;28;19916;-76
2023/02/10 12:31:59;;;;;;;;;;;5.40;99.90;;;;;;5096575;28;19924;-75
2023/02/10 12:34:44;;;;;;;;;;;5.40;99.90;;;;;;5096249;28;20312;-75
2023/02/10 12:37:25;;;;;;;;;;;5.50;99.90;;;;;;5084016;28;19975;-75
2023/02/10 12:40:10;;;;;;;;;;;5.60;99.90;;;;;;5082356;28;19912;-78
2023/02/10 12:42:42;;;;;;;;;;;5.80;99.90;;;;;;5088357;28;19923;-75
2023/02/10 12:45:08;;;;;;;;;;;5.80;99.90;;;;;;5088234;28;19935;-74
2023/02/10 12:47:40;;;;;;;;;;;5.80;99.90;;;;;;5082952;28;19916;-75
2023/02/10 12:50:06;;;;;;;;;;;5.90;99.90;;;;;;5087509;28;19927;-77
2023/02/10 12:52:37;;;;;;;;;;;6.00;99.90;;;;;;5094104;27;19943;-77
2023/02/10 12:55:10;;;;;;;;;;;6.10;99.90;;;;;;5084171;28;19913;-77
2023/02/10 12:57:54;;;;;;;;;;;6.20;99.90;;;;;;5097145;27;19927;-76
2023/02/10 13:00:20;;;;;;;;;;;6.30;99.90;;;;;;5085641;28;19916;-77
2023/02/10 13:02:56;;;;;;;;;;;6.30;99.90;;;;;;5085918;28;19929;-76
2023/02/10 13:05:27;;;;;;;;;;;6.30;99.90;;;;;;5084929;28;20358;-78
2023/02/10 13:07:57;;;;;;;;;;;6.40;99.90;;;;;;5081391;28;19917;-78
2023/02/10 13:10:35;;;;;;;;;;;6.50;99.90;;;;;;5082302;28;19916;-76
2023/02/10 13:13:05;;;;;;;;;;;6.40;99.90;;;;;;5079610;28;19912;-76
2023/02/10 13:15:37;;;;;;;;;;;6.60;99.90;;;;;;5083245;28;19913;-78
2023/02/10 13:18:13;;;;;;;;;;;6.70;99.90;;;;;;5085068;28;20308;-79
2023/02/10 13:20:44;;;;;;;;;;;6.70;99.90;;;;;;5091838;28;19923;-78
2023/02/10 13:23:10;;;;;;;;;;;6.90;99.90;;;;;;5083038;28;19912;-78
2023/02/10 13:25:42;;;;;;;;;;;7.00;99.90;;;;;;5077633;28;19909;-79
2023/02/10 13:28:17;;;;;;;;;;;7.00;99.90;;;;;;5080639;28;19917;-76
2023/02/10 13:31:02;;;;;;;;;;;7.10;99.90;;;;;;5080300;28;20385;-75
2023/02/10 13:33:37;;;;;;;;;;;7.20;99.90;;;;;;5083213;28;20407;-78
2023/02/10 13:36:05;;;;;;;;;;;7.10;99.90;;;;;;5088310;28;19970;-79
2023/02/10 13:38:33;;;;;;;;;;;7.00;99.90;;;;;;5075739;28;19916;-80
2023/02/10 13:41:41;;;;;;;;;;;6.90;99.90;;;;;;5085521;28;19912;-80
2023/02/10 13:43:46;;;;;;;;;;;6.80;99.90;;;;;;5081898;28;19920;-80
2023/02/10 13:46:20;;;;;;;;;;;6.70;99.90;;;;;;5087882;28;19923;-79
2023/02/10 13:48:51;;;;;;;;;;;6.70;99.90;;;;;;5100786;28;19921;-80
2023/02/10 13:51:17;;;;;;;;;;;6.60;99.90;;;;;;5087979;28;20297;-79
2023/02/10 13:53:43;;;;;;;;;;;6.70;99.90;;;;;;5114415;27;19920;-84
2023/02/10 13:56:12;;;;;;;;;;;6.80;99.90;;;;;;5099129;28;19912;-81
2023/02/10 13:59:04;;;;;;;;;;;7.00;99.90;;;;;;5082870;28;19908;-80
2023/02/10 14:01:40;;;;;;;;;;;7.10;99.90;;;;;;5082731;28;19932;-82
2023/02/10 14:04:26;;;;;;;;;;;7.00;99.90;;;;;;5097210;28;19919;-81
2023/02/10 14:06:53;;;;;;;;;;;6.80;99.90;;;;;;5092374;28;19920;-82
2023/02/10 14:09:28;;;;;;;;;;;6.70;99.90;;;;;;5086337;28;20296;-78
2023/02/10 14:11:55;;;;;;;;;;;6.70;99.90;;;;;;5105421;28;19925;-81
2023/02/10 14:14:32;;;;;;;;;;;6.90;99.90;;;;;;5088012;28;20288;-80
2023/02/10 14:17:03;;;;;;;;;;;7.00;99.90;;;;;;5114050;27;19931;-81
2023/02/10 14:19:36;;;;;;;;;;;7.00;99.90;;;;;;5082059;28;19919;-81
2023/02/10 14:22:03;;;;;;;;;;;7.00;99.90;;;;;;5084147;28;20261;-81
2023/02/10 14:24:34;;;;;;;;;;;7.00;99.90;;;;;;5090736;28;20349;-82
2023/02/10 14:27:01;;;;;;;;;;;6.90;99.90;;;;;;5082015;28;19912;-75
2023/02/10 14:29:28;;;;;;;;;;;6.70;99.90;;;;;;5102405;27;19923;-79
2023/02/10 14:31:59;;;;;;;;;;;6.50;99.90;;;;;;5076217;28;19920;-79
2023/02/10 14:34:26;;;;;;;;;;;6.50;99.90;;;;;;5082733;28;19920;-80
2023/02/10 14:36:54;;;;;;;;;;;6.40;99.90;;;;;;5078171;28;19935;-79
2023/02/10 14:39:21;;;;;;;;;;;6.30;99.90;;;;;;5082428;28;19919;-79
2023/02/10 14:41:48;;;;;;;;;;;6.30;99.90;;;;;;5084467;28;19918;-79
2023/02/10 14:44:29;;;;;;;;;;;6.20;99.90;;;;;;5089391;28;20321;-80
2023/02/10 14:46:55;;;;;;;;;;;6.20;99.90;;;;;;5094905;28;20383;-79